createdAt,value
2022-08-09T00:01:00.153Z,2.60
2022-08-09T00:04:10.181Z,3.13
2022-08-09T00:06:22.924Z,3.10
2022-08-09T00:08:52.274Z,2.90
2022-08-09T00:11:24.358Z,2.67
2022-08-09T00:13:55.608Z,2.47
2022-08-09T00:16:26.539Z,2.40
2022-08-09T00:19:10.202Z,3.07
2022-08-09T00:21:55.467Z,2.73
2022-08-09T00:24:24.946Z,2.60
2022-08-09T00:26:56.030Z,2.40
2022-08-09T00:29:39.390Z,2.97
2022-08-09T00:32:25.281Z,2.80
2022-08-09T00:34:53.695Z,2.73
2022-08-09T00:37:21.854Z,2.30
2022-08-09T00:40:09.321Z,2.83
2022-08-09T00:44:25.434Z,2.40
2022-08-09T00:45:30.105Z,3.17
2022-08-09T00:48:03.691Z,2.63
2022-08-09T00:50:32.156Z,2.60
2022-08-09T00:53:00.679Z,2.60
2022-08-09T00:56:05.164Z,3.07
2022-08-09T00:58:30.537Z,3.00
2022-08-09T01:01:03.221Z,3.27
2022-08-09T01:03:46.480Z,3.37
2022-08-09T01:06:22.041Z,3.00
2022-08-09T01:09:03.502Z,2.80
2022-08-09T01:11:53.261Z,2.67
2022-08-09T01:14:31.402Z,2.90
2022-08-09T01:17:09.141Z,3.00
2022-08-09T01:20:01.451Z,3.00
2022-08-09T01:22:56.263Z,2.90
2022-08-09T01:25:48.890Z,2.97
2022-08-09T01:28:22.493Z,2.70
2022-08-09T01:30:58.254Z,2.83
2022-08-09T01:33:30.315Z,3.03
2022-08-09T01:36:03.890Z,2.93
2022-08-09T01:38:38.468Z,2.60
2022-08-09T01:41:14.316Z,3.00
2022-08-09T01:43:51.964Z,3.10
2022-08-09T01:46:26.528Z,2.90
2022-08-09T01:49:00.319Z,3.00
2022-08-09T01:51:42.727Z,3.10
2022-08-09T01:54:15.080Z,2.67
2022-08-09T01:56:47.163Z,2.97
2022-08-09T01:59:23.286Z,3.13
2022-08-09T02:02:00.205Z,2.60
2022-08-09T02:04:32.742Z,3.00
2022-08-09T02:07:17.803Z,2.83
2022-08-09T02:10:05.519Z,2.90
2022-08-09T02:12:36.061Z,3.17
2022-08-09T02:15:08.451Z,3.40
2022-08-09T02:18:09.910Z,2.80
2022-08-09T02:20:38.719Z,2.90
2022-08-09T02:23:09.820Z,3.00
2022-08-09T02:25:42.253Z,2.97
2022-08-09T02:28:19.902Z,3.20
2022-08-09T02:30:58.122Z,3.27
2022-08-09T02:33:38.265Z,3.20
2022-08-09T02:36:26.316Z,2.60
2022-08-09T02:38:56.642Z,3.50
2022-08-09T02:41:29.222Z,2.93
2022-08-09T02:44:06.619Z,3.60
2022-08-09T02:46:46.150Z,3.10
2022-08-09T02:49:27.397Z,2.87
2022-08-09T02:52:10.336Z,3.30
2022-08-09T02:54:54.199Z,2.60
2022-08-09T02:57:25.255Z,3.60
2022-08-09T03:00:21.407Z,3.10
2022-08-09T03:02:59.868Z,3.37
2022-08-09T03:05:34.750Z,3.20
2022-08-09T03:08:05.271Z,3.27
2022-08-09T03:10:36.619Z,3.27
2022-08-09T03:13:08.508Z,3.03
2022-08-09T03:16:04.901Z,3.90
2022-08-09T03:18:31.380Z,3.53
2022-08-09T03:21:02.831Z,3.63
2022-08-09T03:23:31.834Z,3.60
2022-08-09T03:26:03.401Z,4.20
2022-08-09T03:28:34.909Z,3.73
2022-08-09T03:31:10.028Z,3.77
2022-08-09T03:33:54.888Z,3.80
2022-08-09T03:36:27.816Z,4.00
2022-08-09T03:38:56.524Z,3.93
2022-08-09T03:41:44.681Z,3.87
2022-08-09T03:44:15.465Z,3.20
2022-08-09T03:46:44.760Z,3.70
2022-08-09T03:49:19.340Z,3.10
2022-08-09T03:52:00.045Z,3.10
2022-08-09T03:54:32.106Z,3.80
2022-08-09T03:57:04.475Z,3.90
2022-08-09T03:59:54.281Z,3.27
2022-08-09T04:02:30.356Z,3.93
2022-08-09T04:05:06.010Z,3.50
2022-08-09T04:07:53.615Z,3.60
2022-08-09T04:10:29.681Z,4.07
2022-08-09T04:13:01.286Z,3.07
2022-08-09T04:15:52.174Z,3.50
2022-08-09T04:18:21.883Z,3.13
2022-08-09T04:20:52.033Z,3.50
2022-08-09T04:23:24.522Z,3.63
2022-08-09T04:25:53.532Z,3.63
2022-08-09T04:28:31.394Z,3.43
2022-08-09T04:31:05.666Z,4.13
2022-08-09T04:33:51.929Z,3.40
2022-08-09T04:36:24.607Z,3.43
2022-08-09T04:38:52.967Z,3.20
2022-08-09T04:41:23.325Z,2.53
2022-08-09T04:44:06.915Z,3.33
2022-08-09T04:46:57.421Z,3.53
2022-08-09T04:49:52.423Z,3.70
2022-08-09T04:52:32.354Z,3.70
2022-08-09T04:55:04.689Z,2.97
2022-08-09T04:57:54.207Z,3.30
2022-08-09T05:00:24.603Z,3.20
2022-08-09T05:02:53.204Z,3.17
2022-08-09T05:05:31.925Z,3.50
2022-08-09T05:08:14.738Z,3.50
2022-08-09T05:10:43.739Z,3.70
2022-08-09T05:13:13.355Z,3.50
2022-08-09T05:15:48.058Z,3.40
2022-08-09T05:18:50.374Z,3.90
2022-08-09T05:21:13.547Z,2.87
2022-08-09T05:24:01.355Z,3.33
2022-08-09T05:26:37.581Z,3.03
2022-08-09T05:29:21.059Z,2.67
2022-08-09T05:31:56.177Z,3.00
2022-08-09T05:34:30.998Z,3.13
2022-08-09T05:37:04.813Z,3.43
2022-08-09T05:39:42.778Z,3.10
2022-08-09T05:42:21.198Z,2.97
2022-08-09T05:45:02.052Z,3.30
2022-08-09T05:47:33.245Z,3.00
2022-08-09T05:50:25.629Z,2.70
2022-08-09T05:52:53.365Z,2.90
2022-08-09T05:55:24.536Z,3.53
2022-08-09T05:57:57.183Z,2.90
2022-08-09T06:00:28.768Z,2.83
2022-08-09T06:02:58.862Z,2.83
2022-08-09T06:05:31.255Z,3.20
2022-08-09T06:08:19.864Z,3.23
2022-08-09T06:10:55.197Z,2.80
2022-08-09T06:13:24.735Z,2.87
2022-08-09T06:15:53.251Z,2.90
2022-08-09T06:18:23.929Z,2.60
2022-08-09T06:20:57.827Z,2.63
2022-08-09T06:23:55.185Z,3.00
2022-08-09T06:26:20.361Z,2.70
2022-08-09T06:29:00.368Z,2.83
2022-08-09T06:31:39.288Z,2.90
2022-08-09T06:34:23.389Z,2.90
2022-08-09T06:36:57.459Z,3.00
2022-08-09T06:39:49.320Z,2.80
2022-08-09T06:42:20.287Z,2.97
2022-08-09T06:44:54.328Z,3.10
2022-08-09T06:47:23.665Z,2.70
2022-08-09T06:50:14.128Z,2.43
2022-08-09T06:52:47.009Z,2.87
2022-08-09T06:55:17.743Z,2.70
2022-08-09T06:58:01.640Z,3.10
2022-08-09T07:00:51.004Z,2.50
2022-08-09T07:03:28.543Z,2.80
2022-08-09T07:06:04.478Z,2.90
2022-08-09T07:08:37.299Z,2.37
2022-08-09T07:11:08.147Z,2.50
2022-08-09T07:13:45.482Z,2.40
2022-08-09T07:16:40.447Z,2.93
2022-08-09T07:19:15.697Z,2.30
2022-08-09T07:21:55.812Z,2.43
2022-08-09T07:24:31.389Z,2.93
2022-08-09T07:27:02.414Z,2.50
2022-08-09T07:29:38.107Z,2.70
2022-08-09T07:32:10.902Z,2.73
2022-08-09T07:34:39.247Z,2.53
2022-08-09T07:37:15.644Z,2.63
2022-08-09T07:39:44.393Z,2.00
2022-08-09T07:42:14.847Z,2.73
2022-08-09T07:44:51.734Z,2.77
2022-08-09T07:47:23.385Z,2.57
2022-08-09T07:50:04.345Z,2.60
2022-08-09T07:52:35.889Z,2.20
2022-08-09T07:55:08.950Z,3.00
2022-08-09T07:57:46.801Z,2.73
2022-08-09T08:00:20.478Z,2.80
2022-08-09T08:03:08.120Z,2.43
2022-08-09T08:05:53.554Z,2.73
2022-08-09T08:09:01.898Z,2.50
2022-08-09T08:12:09.896Z,2.50
2022-08-09T08:14:01.288Z,2.57
2022-08-09T08:16:32.243Z,2.40
2022-08-09T08:19:03.249Z,2.77
2022-08-09T08:21:32.855Z,2.60
2022-08-09T08:24:11.403Z,2.60
2022-08-09T08:26:54.930Z,2.50
2022-08-09T08:29:27.732Z,2.63
2022-08-09T08:32:03.966Z,2.77
2022-08-09T08:34:36.252Z,2.73
2022-08-09T08:37:05.153Z,2.30
2022-08-09T08:39:43.511Z,2.30
2022-08-09T08:42:13.087Z,2.53
2022-08-09T08:44:43.243Z,1.90
2022-08-09T08:47:15.867Z,2.43
2022-08-09T08:49:47.197Z,2.40
2022-08-09T08:52:57.290Z,2.47
2022-08-09T08:55:07.390Z,2.47
2022-08-09T08:57:37.613Z,2.30
2022-08-09T09:00:20.352Z,3.07
2022-08-09T09:03:08.276Z,2.40
2022-08-09T09:06:01.199Z,2.60
2022-08-09T09:08:37.993Z,2.37
2022-08-09T09:11:13.783Z,3.00
2022-08-09T09:13:56.672Z,2.30
2022-08-09T09:16:32.265Z,2.50
2022-08-09T09:22:03.803Z,2.10
2022-08-09T09:24:34.853Z,2.30
2022-08-09T09:27:04.896Z,2.30
2022-08-09T09:29:58.098Z,2.33
2022-08-09T09:32:35.084Z,2.40
2022-08-09T09:35:09.155Z,2.50
2022-08-09T09:37:40.430Z,1.83
2022-08-09T09:40:11.774Z,2.30
2022-08-09T09:42:43.092Z,2.80
2022-08-09T09:45:26.414Z,2.27
2022-08-09T09:47:58.723Z,2.53
2022-08-09T09:50:50.569Z,2.23
2022-08-09T09:53:44.046Z,2.20
2022-08-09T09:56:31.260Z,1.90
2022-08-09T09:58:59.585Z,2.63
2022-08-09T10:01:31.103Z,2.17
2022-08-09T10:04:15.780Z,2.10
2022-08-09T10:06:51.892Z,2.13
2022-08-09T10:09:24.037Z,2.37
2022-08-09T10:12:14.714Z,1.83
2022-08-09T10:14:49.357Z,2.10
2022-08-09T10:17:40.362Z,1.97
2022-08-09T10:20:32.247Z,1.70
2022-08-09T10:23:20.498Z,2.03
2022-08-09T10:26:06.796Z,1.83
2022-08-09T10:28:39.985Z,1.77
2022-08-09T10:34:10.067Z,1.70
2022-08-09T10:36:46.984Z,1.70
2022-08-09T10:39:19.824Z,2.00
2022-08-09T10:41:49.600Z,1.93
2022-08-09T10:44:21.958Z,2.00
2022-08-09T10:48:11.881Z,1.77
2022-08-09T10:50:27.015Z,1.90
2022-08-09T10:53:21.229Z,1.63
2022-08-09T10:56:22.548Z,1.73
2022-08-09T10:58:54.058Z,2.23
2022-08-09T11:03:14.277Z,1.73
2022-08-09T11:04:32.525Z,1.67
2022-08-09T11:07:27.105Z,1.70
2022-08-09T11:10:15.405Z,2.00
2022-08-09T11:13:49.350Z,1.80
2022-08-09T11:16:35.652Z,1.70
2022-08-09T11:19:09.549Z,1.73
2022-08-09T11:21:56.997Z,1.90
2022-08-09T11:25:03.604Z,1.80
2022-08-09T11:28:02.837Z,1.80
2022-08-09T11:30:37.546Z,1.77
2022-08-09T11:33:13.013Z,1.83
2022-08-09T11:35:49.150Z,1.70
2022-08-09T11:38:22.046Z,1.70
2022-08-09T11:40:54.686Z,1.90
2022-08-09T11:43:42.599Z,1.80
2022-08-09T11:46:12.965Z,1.70
2022-08-09T11:48:57.597Z,1.90
2022-08-09T11:52:59.224Z,1.83
2022-08-09T11:54:27.668Z,1.90
2022-08-09T11:58:00.705Z,1.63
2022-08-09T12:00:27.724Z,1.60
2022-08-09T12:02:59.076Z,1.40
2022-08-09T12:05:42.087Z,1.80
2022-08-09T12:08:21.460Z,1.87
2022-08-09T12:10:53.114Z,1.80
2022-08-09T12:14:08.034Z,1.70
2022-08-09T12:16:30.431Z,1.70
2022-08-09T12:19:09.796Z,1.80
2022-08-09T12:21:48.661Z,1.40
2022-08-09T12:24:25.007Z,1.73
2022-08-09T12:28:59.389Z,1.50
2022-08-09T12:30:04.287Z,1.33
2022-08-09T12:32:45.026Z,1.40
2022-08-09T12:35:19.256Z,1.87
2022-08-09T12:37:52.001Z,1.53
2022-08-09T12:40:26.892Z,1.60
2022-08-09T12:42:56.213Z,1.37
2022-08-09T12:45:32.316Z,1.60
2022-08-09T12:48:04.235Z,1.60
2022-08-09T12:50:37.258Z,1.60
2022-08-09T12:53:17.498Z,1.77
2022-08-09T12:56:14.165Z,1.63
2022-08-09T12:58:35.118Z,1.67
2022-08-09T13:01:22.896Z,1.40
2022-08-09T13:04:01.912Z,1.50
2022-08-09T13:06:35.413Z,1.50
2022-08-09T13:09:11.296Z,1.33
2022-08-09T13:11:43.517Z,1.20
2022-08-09T13:14:41.301Z,1.43
2022-08-09T13:17:03.422Z,1.57
2022-08-09T13:20:06.831Z,1.67
2022-08-09T13:22:45.535Z,1.30
2022-08-09T13:25:14.961Z,1.50
2022-08-09T13:27:54.453Z,1.30
2022-08-09T13:30:50.704Z,1.30
2022-08-09T13:33:23.886Z,1.20
2022-08-09T13:36:37.643Z,1.30
2022-08-09T13:38:55.464Z,1.50
2022-08-09T13:41:58.442Z,1.20
2022-08-09T13:44:16.933Z,1.30
2022-08-09T13:47:27.536Z,1.57
2022-08-09T13:49:39.674Z,1.50
2022-08-09T13:52:23.799Z,1.43
2022-08-09T13:55:00.043Z,1.40
2022-08-09T13:57:36.538Z,1.50
2022-08-09T14:00:12.058Z,1.53
2022-08-09T14:03:03.910Z,1.50
2022-08-09T14:05:58.697Z,1.38
2022-08-09T14:08:19.458Z,1.50
2022-08-09T14:10:53.105Z,1.42
2022-08-09T14:14:14.841Z,1.20
2022-08-09T14:16:16.907Z,1.23
2022-08-09T14:18:49.552Z,1.20
2022-08-09T14:21:20.979Z,1.30
2022-08-09T14:23:56.687Z,1.40
2022-08-09T14:26:30.450Z,1.70
2022-08-09T14:29:01.914Z,1.40
2022-08-09T14:31:36.012Z,1.30
2022-08-09T14:34:30.891Z,1.20
2022-08-09T14:37:02.446Z,1.40
2022-08-09T14:39:40.057Z,1.20
2022-08-09T14:42:28.710Z,1.55
2022-08-09T14:46:57.171Z,1.50
2022-08-09T14:47:58.826Z,1.58
2022-08-09T14:50:30.407Z,1.33
2022-08-09T14:52:59.566Z,1.30
2022-08-09T14:55:32.183Z,1.40
2022-08-09T14:58:04.804Z,1.60
2022-08-09T15:00:34.278Z,1.17
2022-08-09T15:03:06.761Z,1.42
2022-08-09T15:05:36.524Z,1.30
2022-08-09T15:08:05.524Z,1.27
2022-08-09T15:10:35.239Z,1.40
2022-08-09T15:13:06.019Z,1.40
2022-08-09T15:15:39.263Z,1.30
2022-08-09T15:18:12.289Z,1.53
2022-08-09T15:21:56.064Z,1.40
2022-08-09T15:24:09.327Z,1.30
2022-08-09T15:26:30.881Z,1.40
2022-08-09T15:29:04.679Z,1.60
2022-08-09T15:31:41.288Z,1.10
2022-08-09T15:34:18.345Z,1.83
2022-08-09T15:37:03.966Z,1.43
2022-08-09T15:39:43.914Z,1.40
2022-08-09T15:42:21.997Z,1.50
2022-08-09T15:44:51.707Z,1.50
2022-08-09T15:47:22.770Z,1.27
2022-08-09T15:50:04.046Z,1.30
2022-08-09T15:52:35.462Z,1.50
2022-08-09T15:55:05.765Z,1.17
2022-08-09T15:57:44.317Z,1.40
2022-08-09T16:00:26.214Z,1.50
2022-08-09T16:02:57.124Z,1.63
2022-08-09T16:05:47.588Z,1.70
2022-08-09T16:08:30.689Z,1.60
2022-08-09T16:11:01.688Z,1.70
2022-08-09T16:14:02.714Z,1.67
2022-08-09T16:16:26.166Z,1.90
2022-08-09T16:18:56.646Z,1.70
2022-08-09T16:21:26.399Z,1.90
2022-08-09T16:24:02.385Z,1.60
2022-08-09T16:26:34.594Z,2.20
2022-08-09T16:29:11.465Z,1.53
2022-08-09T16:32:19.941Z,1.60
2022-08-09T16:34:55.967Z,1.67
2022-08-09T16:37:53.468Z,1.50
2022-08-09T16:40:11.606Z,1.67
2022-08-09T16:42:44.816Z,1.70
2022-08-09T16:45:17.585Z,1.80
2022-08-09T16:48:50.808Z,1.70
2022-08-09T16:50:38.271Z,1.50
2022-08-09T16:53:08.803Z,1.80
2022-08-09T16:55:58.290Z,1.80
2022-08-09T16:58:26.104Z,1.57
2022-08-09T17:00:54.973Z,2.23
2022-08-09T17:03:25.137Z,1.80
2022-08-09T17:06:08.404Z,1.70
2022-08-09T17:09:01.046Z,1.60
2022-08-09T17:11:41.570Z,2.00
2022-08-09T17:14:26.117Z,1.80
2022-08-09T17:16:59.654Z,1.70
2022-08-09T17:20:05.123Z,1.63
2022-08-09T17:22:24.769Z,1.80
2022-08-09T17:25:02.549Z,1.70
2022-08-09T17:27:32.747Z,1.40
2022-08-09T17:30:04.559Z,1.50
2022-08-09T17:32:35.003Z,1.80
2022-08-09T17:35:12.419Z,1.60
2022-08-09T17:38:11.306Z,1.70
2022-08-09T17:40:32.774Z,1.87
2022-08-09T17:43:10.792Z,1.57
2022-08-09T17:46:03.416Z,1.67
2022-08-09T17:48:39.156Z,1.60
2022-08-09T17:51:18.062Z,1.60
2022-08-09T17:53:53.409Z,1.60
2022-08-09T17:56:27.840Z,1.50
2022-08-09T17:58:58.159Z,1.63
2022-08-09T18:02:03.753Z,1.20
2022-08-09T18:04:14.740Z,1.43
2022-08-09T18:06:54.190Z,1.63
2022-08-09T18:09:24.963Z,1.90
2022-08-09T18:12:14.898Z,1.83
2022-08-09T18:14:49.900Z,1.90
2022-08-09T18:18:01.320Z,1.50
2022-08-09T18:20:53.815Z,1.50
2022-08-09T18:22:59.784Z,2.00
2022-08-09T18:25:50.869Z,1.60
2022-08-09T18:30:39.810Z,1.60
2022-08-09T18:31:12.536Z,1.67
2022-08-09T18:33:40.812Z,1.67
2022-08-09T18:36:14.423Z,1.77
2022-08-09T18:39:01.914Z,1.50
2022-08-09T18:41:34.813Z,2.00
2022-08-09T18:44:13.227Z,1.90
2022-08-09T18:46:49.452Z,1.90
2022-08-09T18:49:28.211Z,1.47
2022-08-09T18:52:00.697Z,1.87
2022-08-09T18:54:30.565Z,1.83
2022-08-09T18:57:06.214Z,2.00
2022-08-09T18:59:51.218Z,1.87
2022-08-09T19:02:21.202Z,1.57
2022-08-09T19:05:00.967Z,1.80
2022-08-09T19:07:33.437Z,1.90
2022-08-09T19:10:14.074Z,2.20
2022-08-09T19:12:51.457Z,2.00
2022-08-09T19:15:33.276Z,2.03
2022-08-09T19:18:05.390Z,1.77
2022-08-09T19:20:38.997Z,2.00
2022-08-09T19:23:08.313Z,1.63
2022-08-09T19:26:01.886Z,1.90
2022-08-09T19:28:33.933Z,2.07
2022-08-09T19:31:07.622Z,2.20
2022-08-09T19:33:36.124Z,1.70
2022-08-09T19:36:04.976Z,2.20
2022-08-09T19:38:35.352Z,1.77
2022-08-09T19:41:09.451Z,1.90
2022-08-09T19:43:57.845Z,2.20
2022-08-09T19:46:35.831Z,2.17
2022-08-09T19:50:09.569Z,1.60
2022-08-09T19:52:03.273Z,1.80
2022-08-09T19:54:31.428Z,1.87
2022-08-09T19:57:01.284Z,1.70
2022-08-09T19:59:58.965Z,2.30
2022-08-09T20:04:12.207Z,2.20
2022-08-09T20:05:14.570Z,1.90
2022-08-09T20:08:00.230Z,1.80
2022-08-09T20:10:34.294Z,1.90
2022-08-09T20:13:06.865Z,2.20
2022-08-09T20:16:35.104Z,2.03
2022-08-09T20:18:27.916Z,2.13
2022-08-09T20:20:56.689Z,1.80
2022-08-09T20:23:38.975Z,2.13
2022-08-09T20:26:09.959Z,1.77
2022-08-09T20:28:49.805Z,1.93
2022-08-09T20:31:18.807Z,2.20
2022-08-09T20:33:58.160Z,2.13
2022-08-09T20:36:27.258Z,2.20
2022-08-09T20:39:27.601Z,2.10
2022-08-09T20:41:43.928Z,2.20
2022-08-09T20:44:13.491Z,2.00
2022-08-09T20:46:44.918Z,1.90
2022-08-09T20:49:16.071Z,2.30
2022-08-09T20:51:50.644Z,1.70
2022-08-09T20:54:19.200Z,2.20
2022-08-09T20:56:49.849Z,2.17
2022-08-09T20:59:50.373Z,2.03
2022-08-09T21:02:17.603Z,2.00
2022-08-09T21:05:56.563Z,2.30
2022-08-09T21:07:40.136Z,2.30
2022-08-09T21:10:11.596Z,2.40
2022-08-09T21:12:40.265Z,2.37
2022-08-09T21:15:13.010Z,2.43
2022-08-09T21:18:23.587Z,2.20
2022-08-09T21:20:30.725Z,2.27
2022-08-09T21:23:00.285Z,2.40
2022-08-09T21:25:55.348Z,2.20
2022-08-09T21:28:33.137Z,2.10
2022-08-09T21:31:16.461Z,2.40
2022-08-09T21:33:51.522Z,2.60
2022-08-09T21:36:22.939Z,2.33
2022-08-09T21:38:57.378Z,2.40
2022-08-09T21:42:05.773Z,2.70
2022-08-09T21:44:33.014Z,2.87
2022-08-09T21:47:05.739Z,2.90
2022-08-09T21:49:40.074Z,2.40
2022-08-09T21:52:17.180Z,2.60
2022-08-09T21:54:49.709Z,2.60
2022-08-09T21:57:37.777Z,2.80
2022-08-09T22:00:15.012Z,2.67
2022-08-09T22:02:51.252Z,2.80
2022-08-09T22:05:35.762Z,2.90
2022-08-09T22:08:13.647Z,2.30
2022-08-09T22:11:00.271Z,2.53
2022-08-09T22:13:34.554Z,2.70
2022-08-09T22:16:04.395Z,2.63
2022-08-09T22:18:37.612Z,2.77
2022-08-09T22:21:09.921Z,2.63
2022-08-09T22:24:01.200Z,3.13
2022-08-09T22:26:35.323Z,2.50
2022-08-09T22:29:09.314Z,2.63
2022-08-09T22:31:50.199Z,2.57
2022-08-09T22:34:26.837Z,2.97
2022-08-09T22:36:55.766Z,2.70
2022-08-09T22:39:57.482Z,3.03
2022-08-09T22:42:21.221Z,2.87
2022-08-09T22:45:00.192Z,2.90
2022-08-09T22:48:33.716Z,2.83
2022-08-09T22:50:30.909Z,2.83
2022-08-09T22:52:59.794Z,3.10
2022-08-09T22:56:06.348Z,2.90
2022-08-09T22:58:32.628Z,2.90
2022-08-09T23:01:02.688Z,2.90
2022-08-09T23:04:04.733Z,2.60
2022-08-09T23:06:35.841Z,2.80
2022-08-09T23:09:05.911Z,3.30
2022-08-09T23:11:34.260Z,2.83
2022-08-09T23:14:03.331Z,2.80
2022-08-09T23:16:32.204Z,3.10
2022-08-09T23:19:00.529Z,2.80
2022-08-09T23:21:34.296Z,2.90
2022-08-09T23:24:07.127Z,2.70
2022-08-09T23:26:36.415Z,2.77
2022-08-09T23:29:06.067Z,2.87
2022-08-09T23:31:34.468Z,2.90
2022-08-09T23:34:03.809Z,2.83
2022-08-09T23:36:35.083Z,3.00
2022-08-09T23:39:03.775Z,3.10
2022-08-09T23:41:32.109Z,2.80
2022-08-09T23:44:01.522Z,2.80
2022-08-09T23:46:31.210Z,2.50
2022-08-09T23:49:00.233Z,2.37
2022-08-09T23:51:29.497Z,3.10
2022-08-09T23:54:02.594Z,2.70
2022-08-09T23:56:52.631Z,2.67
2022-08-09T23:59:21.180Z,2.90
